createdAt,value
2023-09-29T00:01:40.910Z,17.60
2023-09-29T00:04:07.550Z,17.61
2023-09-29T00:06:34.496Z,17.60
2023-09-29T00:09:01.810Z,17.63
2023-09-29T00:11:32.066Z,17.65
2023-09-29T00:13:59.172Z,17.65
2023-09-29T00:16:25.986Z,17.67
2023-09-29T00:18:52.536Z,17.65
2023-09-29T00:21:19.949Z,17.65
2023-09-29T00:23:46.487Z,17.63
2023-09-29T00:26:13.003Z,17.61
2023-09-29T00:28:40.262Z,17.58
2023-09-29T00:31:07.493Z,17.61
2023-09-29T00:33:34.600Z,17.63
2023-09-29T00:36:01.399Z,17.65
2023-09-29T00:38:28.843Z,17.66
2023-09-29T00:40:56.957Z,17.68
2023-09-29T00:43:23.599Z,17.68
2023-09-29T00:45:51.009Z,17.68
2023-09-29T00:48:18.414Z,17.68
2023-09-29T00:50:46.298Z,17.70
2023-09-29T00:53:15.857Z,17.70
2023-09-29T00:55:44.039Z,17.71
2023-09-29T00:58:13.963Z,17.73
2023-09-29T01:00:41.943Z,17.72
2023-09-29T01:03:10.592Z,17.71
2023-09-29T01:05:48.753Z,17.75
2023-09-29T01:08:18.194Z,17.73
2023-09-29T01:10:45.576Z,17.72
2023-09-29T01:13:13.235Z,17.73
2023-09-29T01:15:40.461Z,17.74
2023-09-29T01:18:07.597Z,17.76
2023-09-29T01:20:35.901Z,17.77
2023-09-29T01:23:04.862Z,17.75
2023-09-29T01:25:31.670Z,17.76
2023-09-29T01:27:58.865Z,17.75
2023-09-29T01:30:26.853Z,17.76
2023-09-29T01:32:57.596Z,17.76
2023-09-29T01:35:24.932Z,17.77
2023-09-29T01:37:54.832Z,17.74
2023-09-29T01:40:24.967Z,17.73
2023-09-29T01:42:52.741Z,17.70
2023-09-29T01:45:20.297Z,17.72
2023-09-29T01:47:48.452Z,17.72
2023-09-29T01:50:16.307Z,17.71
2023-09-29T01:52:47.552Z,17.72
2023-09-29T01:55:20.725Z,17.74
2023-09-29T01:57:48.902Z,17.75
2023-09-29T02:00:21.898Z,17.72
2023-09-29T02:02:49.325Z,17.72
2023-09-29T02:05:19.470Z,17.74
2023-09-29T02:07:47.628Z,17.75
2023-09-29T02:10:21.828Z,17.75
2023-09-29T02:12:56.933Z,17.77
2023-09-29T02:15:25.899Z,17.78
2023-09-29T02:17:53.475Z,17.77
2023-09-29T02:20:22.168Z,17.75
2023-09-29T02:22:49.919Z,17.74
2023-09-29T02:25:18.540Z,17.77
2023-09-29T02:27:45.337Z,17.80
2023-09-29T02:30:13.086Z,17.81
2023-09-29T02:32:42.756Z,17.81
2023-09-29T02:35:10.624Z,17.83
2023-09-29T02:37:37.511Z,17.86
2023-09-29T02:40:10.906Z,17.86
2023-09-29T02:42:37.600Z,17.78
2023-09-29T02:45:05.613Z,17.74
2023-09-29T02:47:32.701Z,17.71
2023-09-29T02:49:59.950Z,17.67
2023-09-29T02:52:28.270Z,17.66
2023-09-29T02:54:57.747Z,17.66
2023-09-29T02:57:24.546Z,17.64
2023-09-29T02:59:52.096Z,17.64
2023-09-29T03:02:18.730Z,17.62
2023-09-29T03:04:48.052Z,17.61
2023-09-29T03:07:14.537Z,17.62
2023-09-29T03:09:41.034Z,17.60
2023-09-29T03:12:08.501Z,17.57
2023-09-29T03:14:35.363Z,17.56
2023-09-29T03:17:01.950Z,17.58
2023-09-29T03:19:29.036Z,17.58
2023-09-29T03:21:55.488Z,17.55
2023-09-29T03:24:23.175Z,17.51
2023-09-29T03:26:50.467Z,17.50
2023-09-29T03:29:18.900Z,17.54
2023-09-29T03:31:46.308Z,17.56
2023-09-29T03:34:12.804Z,17.57
2023-09-29T03:36:40.031Z,17.59
2023-09-29T03:39:07.501Z,17.55
2023-09-29T03:41:34.597Z,17.55
2023-09-29T03:44:01.557Z,17.60
2023-09-29T03:46:30.300Z,17.62
2023-09-29T03:48:57.072Z,17.62
2023-09-29T03:51:24.900Z,17.63
2023-09-29T03:53:57.343Z,17.63
2023-09-29T03:56:24.423Z,17.64
2023-09-29T03:58:51.885Z,17.64
2023-09-29T04:01:18.673Z,17.66
2023-09-29T04:03:45.334Z,17.68
2023-09-29T04:06:12.612Z,17.68
2023-09-29T04:08:39.956Z,17.69
2023-09-29T04:11:07.128Z,17.68
2023-09-29T04:13:34.587Z,17.67
2023-09-29T04:16:08.684Z,17.65
2023-09-29T04:18:36.495Z,17.65
2023-09-29T04:21:03.966Z,17.65
2023-09-29T04:23:30.731Z,17.64
2023-09-29T04:25:57.298Z,17.63
2023-09-29T04:28:23.775Z,17.62
2023-09-29T04:30:50.227Z,17.66
2023-09-29T04:33:16.928Z,17.67
2023-09-29T04:35:44.599Z,17.70
2023-09-29T04:38:11.381Z,17.72
2023-09-29T04:40:39.120Z,17.73
2023-09-29T04:43:06.650Z,17.76
2023-09-29T04:45:35.172Z,17.78
2023-09-29T04:48:02.732Z,17.79
2023-09-29T04:50:30.436Z,17.83
2023-09-29T04:52:57.178Z,17.79
2023-09-29T04:55:23.649Z,17.78
2023-09-29T04:57:53.436Z,17.76
2023-09-29T05:00:19.909Z,17.79
2023-09-29T05:02:46.866Z,17.82
2023-09-29T05:05:13.794Z,17.85
2023-09-29T05:07:40.716Z,17.84
2023-09-29T05:10:07.678Z,17.86
2023-09-29T05:12:34.177Z,17.84
2023-09-29T05:15:00.780Z,17.85
2023-09-29T05:17:40.683Z,17.87
2023-09-29T05:20:13.882Z,17.83
2023-09-29T05:22:40.375Z,17.82
2023-09-29T05:25:07.211Z,17.83
2023-09-29T05:27:33.676Z,17.85
2023-09-29T05:30:00.393Z,17.85
2023-09-29T05:32:26.959Z,17.89
2023-09-29T05:34:53.469Z,17.89
2023-09-29T05:37:19.961Z,17.91
2023-09-29T05:39:46.371Z,17.89
2023-09-29T05:42:13.683Z,17.91
2023-09-29T05:44:40.419Z,17.89
2023-09-29T05:47:06.978Z,17.87
2023-09-29T05:49:33.706Z,17.89
2023-09-29T05:52:00.283Z,17.90
2023-09-29T05:54:26.710Z,17.88
2023-09-29T05:56:53.359Z,17.87
2023-09-29T05:59:19.832Z,17.89
2023-09-29T06:01:47.204Z,17.88
2023-09-29T06:04:13.957Z,17.89
2023-09-29T06:06:40.607Z,17.88
2023-09-29T06:09:07.608Z,17.88
2023-09-29T06:11:34.286Z,17.90
2023-09-29T06:14:00.899Z,17.90
2023-09-29T06:16:27.380Z,17.90
2023-09-29T06:18:54.117Z,17.86
2023-09-29T06:21:20.584Z,17.89
2023-09-29T06:23:47.128Z,17.88
2023-09-29T06:26:13.634Z,17.89
2023-09-29T06:28:40.111Z,17.90
2023-09-29T06:31:07.255Z,17.90
2023-09-29T06:33:33.957Z,17.90
2023-09-29T06:36:00.533Z,17.90
2023-09-29T06:38:37.381Z,17.88
2023-09-29T06:41:03.797Z,17.92
2023-09-29T06:43:30.242Z,17.92
2023-09-29T06:46:01.911Z,17.92
2023-09-29T06:48:29.610Z,17.92
2023-09-29T06:51:00.778Z,17.92
2023-09-29T06:53:29.775Z,17.93
2023-09-29T06:55:56.339Z,17.94
2023-09-29T06:58:22.774Z,17.94
2023-09-29T07:00:50.946Z,17.97
2023-09-29T07:03:17.554Z,17.99
2023-09-29T07:05:44.060Z,18.02
2023-09-29T07:08:10.594Z,18.03
2023-09-29T07:10:37.118Z,18.03
2023-09-29T07:13:03.612Z,18.04
2023-09-29T07:15:30.035Z,18.04
2023-09-29T07:17:56.803Z,18.08
2023-09-29T07:20:23.416Z,18.11
2023-09-29T07:22:52.471Z,18.13
2023-09-29T07:25:19.985Z,18.16
2023-09-29T07:27:46.500Z,18.21
2023-09-29T07:30:13.499Z,18.22
2023-09-29T07:32:42.395Z,18.18
2023-09-29T07:35:09.346Z,18.20
2023-09-29T07:37:36.073Z,18.24
2023-09-29T07:40:02.961Z,18.17
2023-09-29T07:42:29.441Z,18.20
2023-09-29T07:44:55.939Z,18.26
2023-09-29T07:47:22.385Z,18.32
2023-09-29T07:49:48.832Z,18.34
2023-09-29T07:52:15.276Z,18.35
2023-09-29T07:54:41.720Z,18.36
2023-09-29T07:57:08.228Z,18.34
2023-09-29T07:59:34.726Z,18.38
2023-09-29T08:02:01.370Z,18.42
2023-09-29T08:04:28.028Z,18.43
2023-09-29T08:06:54.542Z,18.41
2023-09-29T08:09:20.961Z,18.40
2023-09-29T08:11:47.491Z,18.38
2023-09-29T08:14:14.202Z,18.46
2023-09-29T08:16:41.177Z,18.48
2023-09-29T08:19:07.752Z,18.48
2023-09-29T08:21:34.573Z,18.52
2023-09-29T08:24:03.977Z,18.59
2023-09-29T08:26:32.005Z,18.57
2023-09-29T08:29:00.596Z,18.57
2023-09-29T08:31:27.411Z,18.60
2023-09-29T08:33:54.067Z,18.61
2023-09-29T08:36:21.027Z,18.64
2023-09-29T08:38:47.788Z,18.66
2023-09-29T08:41:16.584Z,18.71
2023-09-29T08:43:56.025Z,18.73
2023-09-29T08:46:27.192Z,18.70
2023-09-29T08:48:56.306Z,18.76
2023-09-29T08:51:26.048Z,18.82
2023-09-29T08:53:53.840Z,18.83
2023-09-29T08:56:21.152Z,18.87
2023-09-29T08:58:47.788Z,18.88
2023-09-29T09:01:14.872Z,18.87
2023-09-29T09:03:41.415Z,18.90
2023-09-29T09:06:26.132Z,18.89
2023-09-29T09:08:54.324Z,18.93
2023-09-29T09:11:21.010Z,19.00
2023-09-29T09:14:04.623Z,19.07
2023-09-29T09:16:35.366Z,19.03
2023-09-29T09:19:15.757Z,19.02
2023-09-29T09:21:44.142Z,19.06
2023-09-29T09:24:24.512Z,19.12
2023-09-29T09:26:53.125Z,19.15
2023-09-29T09:29:20.736Z,19.19
2023-09-29T09:31:54.949Z,19.21
2023-09-29T09:34:32.247Z,19.17
2023-09-29T09:36:59.697Z,19.19
2023-09-29T09:39:28.847Z,19.20
2023-09-29T09:41:57.818Z,19.23
2023-09-29T09:44:26.700Z,19.27
2023-09-29T09:46:58.764Z,19.31
2023-09-29T09:49:29.995Z,19.34
2023-09-29T09:52:04.680Z,19.31
2023-09-29T09:54:36.215Z,19.37
2023-09-29T09:57:10.398Z,19.34
2023-09-29T09:59:37.389Z,19.36
2023-09-29T10:02:07.662Z,19.22
2023-09-29T10:04:37.206Z,19.24
2023-09-29T10:07:05.928Z,19.25
2023-09-29T10:09:46.483Z,19.27
2023-09-29T10:12:31.282Z,19.24
2023-09-29T10:15:00.260Z,19.20
2023-09-29T10:17:40.964Z,19.15
2023-09-29T10:20:20.238Z,19.12
2023-09-29T10:22:48.010Z,19.10
2023-09-29T10:25:21.553Z,19.09
2023-09-29T10:27:51.167Z,19.06
2023-09-29T10:30:17.848Z,19.04
2023-09-29T10:32:46.819Z,19.02
2023-09-29T10:35:20.987Z,19.05
2023-09-29T10:37:55.835Z,19.05
2023-09-29T10:40:24.009Z,19.05
2023-09-29T10:42:55.367Z,18.99
2023-09-29T10:45:37.792Z,19.00
2023-09-29T10:48:08.865Z,19.00
2023-09-29T10:50:50.910Z,18.98
2023-09-29T10:53:19.867Z,18.99
2023-09-29T10:55:48.999Z,18.99
2023-09-29T10:58:19.738Z,18.95
2023-09-29T11:00:50.079Z,18.83
2023-09-29T11:03:19.896Z,18.68
2023-09-29T11:08:44.142Z,18.51
2023-09-29T11:11:10.864Z,18.41
2023-09-29T11:13:39.937Z,18.31
2023-09-29T11:16:18.137Z,18.28
2023-09-29T11:18:47.876Z,18.22
2023-09-29T11:21:14.535Z,18.22
2023-09-29T11:23:45.201Z,18.24
2023-09-29T11:26:13.186Z,18.08
2023-09-29T11:28:48.590Z,18.03
2023-09-29T11:31:18.632Z,18.01
2023-09-29T11:33:46.464Z,18.06
2023-09-29T11:36:18.532Z,18.10
2023-09-29T11:38:46.178Z,18.12
2023-09-29T11:41:14.419Z,18.15
2023-09-29T11:43:41.936Z,18.14
2023-09-29T11:46:10.120Z,18.15
2023-09-29T11:48:38.878Z,18.08
2023-09-29T11:51:06.661Z,17.97
2023-09-29T11:53:33.471Z,17.89
2023-09-29T11:56:00.114Z,17.85
2023-09-29T11:58:26.575Z,17.82
2023-09-29T12:00:53.758Z,17.75
2023-09-29T12:03:22.797Z,17.75
2023-09-29T12:05:53.224Z,17.75
2023-09-29T12:08:20.534Z,17.79
2023-09-29T12:10:47.668Z,17.81
2023-09-29T12:13:16.761Z,17.90
2023-09-29T12:15:47.028Z,17.93
2023-09-29T12:18:13.702Z,17.99
2023-09-29T12:20:41.294Z,17.99
2023-09-29T12:23:09.561Z,18.00
2023-09-29T12:25:39.605Z,18.08
2023-09-29T12:28:06.929Z,18.09
2023-09-29T12:30:34.126Z,18.09
2023-09-29T12:33:00.958Z,18.11
2023-09-29T12:35:28.564Z,18.20
2023-09-29T12:37:55.112Z,18.22
2023-09-29T12:40:21.565Z,18.28
2023-09-29T12:42:48.928Z,18.25
2023-09-29T12:45:18.978Z,18.25
2023-09-29T12:47:46.938Z,18.32
2023-09-29T12:50:13.571Z,18.37
2023-09-29T12:52:40.261Z,18.36
2023-09-29T12:55:07.393Z,18.40
2023-09-29T12:57:33.941Z,18.38
2023-09-29T13:00:01.185Z,18.35
2023-09-29T13:02:33.019Z,18.31
2023-09-29T13:05:00.189Z,18.29
2023-09-29T13:07:26.932Z,18.31
2023-09-29T13:09:53.614Z,18.36
2023-09-29T13:12:31.021Z,18.36
2023-09-29T13:14:58.700Z,18.33
2023-09-29T13:17:25.265Z,18.31
2023-09-29T13:19:51.730Z,18.35
2023-09-29T13:22:18.220Z,18.48
2023-09-29T13:24:44.730Z,18.56
2023-09-29T13:27:11.677Z,18.54
2023-09-29T13:29:39.686Z,18.51
2023-09-29T13:32:06.223Z,18.53
2023-09-29T13:34:32.729Z,18.48
2023-09-29T13:37:00.596Z,18.47
2023-09-29T13:39:28.974Z,18.46
2023-09-29T13:41:55.719Z,18.46
2023-09-29T13:44:22.381Z,18.45
2023-09-29T13:47:03.266Z,18.46
2023-09-29T13:49:30.702Z,18.47
2023-09-29T13:51:57.185Z,18.48
2023-09-29T13:54:23.793Z,18.50
2023-09-29T13:56:50.408Z,18.50
2023-09-29T13:59:17.183Z,18.41
2023-09-29T14:01:43.748Z,18.40
2023-09-29T14:04:10.470Z,18.36
2023-09-29T14:06:37.062Z,18.32
2023-09-29T14:09:16.319Z,18.31
2023-09-29T14:11:44.595Z,18.35
2023-09-29T14:14:11.085Z,18.42
2023-09-29T14:16:37.673Z,18.45
2023-09-29T14:19:04.321Z,18.49
2023-09-29T14:21:30.761Z,18.54
2023-09-29T14:23:57.501Z,18.60
2023-09-29T14:26:24.182Z,18.61
2023-09-29T14:28:50.618Z,18.59
2023-09-29T14:31:17.827Z,18.54
2023-09-29T14:33:45.100Z,18.54
2023-09-29T14:36:11.986Z,18.48
2023-09-29T14:38:40.882Z,18.43
2023-09-29T14:41:09.544Z,18.54
2023-09-29T14:43:37.185Z,18.52
2023-09-29T14:46:11.428Z,18.50
2023-09-29T14:48:38.221Z,18.47
2023-09-29T14:51:06.279Z,18.42
2023-09-29T14:53:33.556Z,18.40
2023-09-29T14:56:08.825Z,18.39
2023-09-29T14:58:35.587Z,18.37
2023-09-29T15:01:02.660Z,18.36
2023-09-29T15:03:32.571Z,18.34
2023-09-29T15:06:14.702Z,18.35
2023-09-29T15:08:42.714Z,18.27
2023-09-29T15:11:09.887Z,18.18
2023-09-29T15:13:36.492Z,18.15
2023-09-29T15:16:05.566Z,18.18
2023-09-29T15:18:32.421Z,18.17
2023-09-29T15:20:58.998Z,18.11
2023-09-29T15:23:25.424Z,18.10
2023-09-29T15:25:53.166Z,18.09
2023-09-29T15:28:20.480Z,18.10
2023-09-29T15:30:48.850Z,18.13
2023-09-29T15:33:16.601Z,18.11
2023-09-29T15:35:56.104Z,18.10
2023-09-29T15:38:24.574Z,18.09
2023-09-29T15:40:54.335Z,18.08
2023-09-29T15:43:21.572Z,18.03
2023-09-29T15:45:49.343Z,18.01
2023-09-29T15:48:16.807Z,17.96
2023-09-29T15:50:43.490Z,17.95
2023-09-29T15:53:12.131Z,17.96
2023-09-29T15:55:43.361Z,17.94
2023-09-29T15:58:11.142Z,17.92
2023-09-29T16:00:38.589Z,17.90
2023-09-29T16:03:08.547Z,17.89
2023-09-29T16:05:35.997Z,17.91
2023-09-29T16:08:03.163Z,17.92
2023-09-29T16:10:30.096Z,17.91
2023-09-29T16:12:56.917Z,17.91
2023-09-29T16:15:23.435Z,17.88
2023-09-29T16:17:50.183Z,17.86
2023-09-29T16:20:16.795Z,17.87
2023-09-29T16:22:43.661Z,17.85
2023-09-29T16:25:11.131Z,17.85
2023-09-29T16:27:37.823Z,17.85
2023-09-29T16:30:05.883Z,17.82
2023-09-29T16:32:33.178Z,17.82
2023-09-29T16:35:03.796Z,17.77
2023-09-29T16:37:34.700Z,17.76
2023-09-29T16:40:08.404Z,17.77
2023-09-29T16:42:41.522Z,17.71
2023-09-29T16:45:08.784Z,17.66
2023-09-29T16:47:35.328Z,17.67
2023-09-29T16:50:01.861Z,17.70
2023-09-29T16:52:28.413Z,17.70
2023-09-29T16:54:54.813Z,17.70
2023-09-29T16:57:22.884Z,17.74
2023-09-29T16:59:50.307Z,17.70
2023-09-29T17:02:17.149Z,17.63
2023-09-29T17:04:43.789Z,17.64
2023-09-29T17:07:10.286Z,17.64
2023-09-29T17:09:37.543Z,17.62
2023-09-29T17:12:04.317Z,17.61
2023-09-29T17:14:30.783Z,17.57
2023-09-29T17:16:57.284Z,17.59
2023-09-29T17:19:23.858Z,17.60
2023-09-29T17:21:50.355Z,17.57
2023-09-29T17:24:16.858Z,17.52
2023-09-29T17:26:43.370Z,17.53
2023-09-29T17:29:10.217Z,17.52
2023-09-29T17:31:37.322Z,17.50
2023-09-29T17:34:03.972Z,17.49
2023-09-29T17:36:30.644Z,17.47
2023-09-29T17:38:57.822Z,17.48
2023-09-29T17:41:24.339Z,17.47
2023-09-29T17:43:50.843Z,17.47
2023-09-29T17:46:17.268Z,17.49
2023-09-29T17:48:44.543Z,17.49
2023-09-29T17:51:12.547Z,17.48
2023-09-29T17:53:39.120Z,17.47
2023-09-29T17:56:06.951Z,17.44
2023-09-29T17:58:33.971Z,17.44
2023-09-29T18:01:04.939Z,17.44
2023-09-29T18:03:31.613Z,17.38
2023-09-29T18:05:58.138Z,17.35
2023-09-29T18:08:24.658Z,17.33
2023-09-29T18:10:52.740Z,17.34
2023-09-29T18:13:19.622Z,17.32
2023-09-29T18:15:46.162Z,17.33
2023-09-29T18:18:12.734Z,17.30
2023-09-29T18:20:39.331Z,17.29
2023-09-29T18:23:05.778Z,17.28
2023-09-29T18:25:32.418Z,17.27
2023-09-29T18:27:59.254Z,17.26
2023-09-29T18:30:27.118Z,17.24
2023-09-29T18:32:54.186Z,17.24
2023-09-29T18:35:20.764Z,17.22
2023-09-29T18:37:47.245Z,17.21
2023-09-29T18:40:14.213Z,17.22
2023-09-29T18:42:40.678Z,17.20
2023-09-29T18:45:07.702Z,17.18
2023-09-29T18:47:34.401Z,17.20
2023-09-29T18:50:01.504Z,17.20
2023-09-29T18:52:27.997Z,17.20
2023-09-29T18:54:54.452Z,17.19
2023-09-29T18:57:20.996Z,17.19
2023-09-29T18:59:47.642Z,17.17
2023-09-29T19:02:14.523Z,17.16
2023-09-29T19:04:40.938Z,17.11
2023-09-29T19:07:07.495Z,17.09
2023-09-29T19:09:34.153Z,17.05
2023-09-29T19:12:02.968Z,16.99
2023-09-29T19:14:30.344Z,16.96
2023-09-29T19:16:56.872Z,16.89
2023-09-29T19:19:24.373Z,16.83
2023-09-29T19:21:50.950Z,16.78
2023-09-29T19:24:17.541Z,16.74
2023-09-29T19:26:44.094Z,16.70
2023-09-29T19:29:10.620Z,16.64
2023-09-29T19:31:37.374Z,16.59
2023-09-29T19:34:04.129Z,16.55
2023-09-29T19:36:32.127Z,16.49
2023-09-29T19:38:58.848Z,16.45
2023-09-29T19:41:28.503Z,16.40
2023-09-29T19:43:55.004Z,16.37
2023-09-29T19:46:23.153Z,16.35
2023-09-29T19:48:52.180Z,16.32
2023-09-29T19:51:19.491Z,16.29
2023-09-29T19:53:46.127Z,16.27
2023-09-29T19:56:13.856Z,16.24
2023-09-29T19:58:41.475Z,16.23
2023-09-29T20:01:09.520Z,16.20
2023-09-29T20:03:36.153Z,16.18
2023-09-29T20:06:03.017Z,16.15
2023-09-29T20:08:31.249Z,16.12
2023-09-29T20:10:57.792Z,16.09
2023-09-29T20:13:24.343Z,16.05
2023-09-29T20:15:54.301Z,16.01
2023-09-29T20:18:21.479Z,15.98
2023-09-29T20:20:48.195Z,15.95
2023-09-29T20:23:15.196Z,15.92
2023-09-29T20:25:41.936Z,15.89
2023-09-29T20:28:08.389Z,15.85
2023-09-29T20:30:34.868Z,15.83
2023-09-29T20:33:01.537Z,15.80
2023-09-29T20:35:28.341Z,15.79
2023-09-29T20:37:54.907Z,15.75
2023-09-29T20:40:21.421Z,15.73
2023-09-29T20:42:47.952Z,15.71
2023-09-29T20:45:14.386Z,15.71
2023-09-29T20:47:42.370Z,15.72
2023-09-29T20:50:09.439Z,15.72
2023-09-29T20:52:35.857Z,15.70
2023-09-29T20:55:02.846Z,15.68
2023-09-29T20:57:30.003Z,15.65
2023-09-29T20:59:56.637Z,15.66
2023-09-29T21:02:23.132Z,15.67
2023-09-29T21:04:50.049Z,15.66
2023-09-29T21:07:16.694Z,15.66
2023-09-29T21:09:43.254Z,15.65
2023-09-29T21:12:11.920Z,15.67
2023-09-29T21:14:38.553Z,15.65
2023-09-29T21:17:05.218Z,15.64
2023-09-29T21:19:35.080Z,15.61
2023-09-29T21:22:04.960Z,15.59
2023-09-29T21:24:31.767Z,15.57
2023-09-29T21:26:58.922Z,15.56
2023-09-29T21:29:25.529Z,15.55
2023-09-29T21:31:53.698Z,15.53
2023-09-29T21:34:20.774Z,15.48
2023-09-29T21:36:47.434Z,15.44
2023-09-29T21:39:14.595Z,15.43
2023-09-29T21:41:43.877Z,15.43
2023-09-29T21:44:14.990Z,15.41
2023-09-29T21:46:42.410Z,15.40
2023-09-29T21:49:09.130Z,15.38
2023-09-29T21:51:37.773Z,15.36
2023-09-29T21:54:04.424Z,15.34
2023-09-29T21:56:30.900Z,15.34
2023-09-29T21:58:58.016Z,15.34
2023-09-29T22:01:24.632Z,15.34
2023-09-29T22:03:51.523Z,15.34
2023-09-29T22:06:19.219Z,15.31
2023-09-29T22:08:45.904Z,15.28
2023-09-29T22:11:13.874Z,15.23
2023-09-29T22:13:41.896Z,15.21
2023-09-29T22:16:09.399Z,15.17
2023-09-29T22:18:36.642Z,15.17
2023-09-29T22:21:03.889Z,15.16
2023-09-29T22:23:32.104Z,15.18
2023-09-29T22:25:59.150Z,15.19
2023-09-29T22:28:25.898Z,15.16
2023-09-29T22:30:54.128Z,15.16
2023-09-29T22:33:22.427Z,15.13
2023-09-29T22:35:49.330Z,15.11
2023-09-29T22:38:15.904Z,15.10
2023-09-29T22:40:42.350Z,15.11
2023-09-29T22:43:08.820Z,15.12
2023-09-29T22:45:35.441Z,15.13
2023-09-29T22:48:02.057Z,15.13
2023-09-29T22:50:28.530Z,15.11
2023-09-29T22:52:55.036Z,15.11
2023-09-29T22:55:21.492Z,15.13
2023-09-29T22:57:48.401Z,15.12
2023-09-29T23:00:15.130Z,15.09
2023-09-29T23:02:44.161Z,15.09
2023-09-29T23:05:12.272Z,15.09
2023-09-29T23:07:38.957Z,15.08
2023-09-29T23:10:06.397Z,15.06
2023-09-29T23:12:33.304Z,15.05
2023-09-29T23:15:01.177Z,15.05
2023-09-29T23:17:27.836Z,15.04
2023-09-29T23:19:54.376Z,15.03
2023-09-29T23:22:20.861Z,15.03
2023-09-29T23:24:47.434Z,15.01
2023-09-29T23:27:14.312Z,15.00
2023-09-29T23:29:40.851Z,14.99
2023-09-29T23:32:07.900Z,14.97
2023-09-29T23:34:35.147Z,14.95
2023-09-29T23:37:01.730Z,14.95
2023-09-29T23:39:28.246Z,14.96
2023-09-29T23:41:55.712Z,14.97
2023-09-29T23:44:24.123Z,14.98
2023-09-29T23:46:50.611Z,14.96
2023-09-29T23:49:17.194Z,14.94
2023-09-29T23:51:45.258Z,14.93
2023-09-29T23:54:12.073Z,14.92
2023-09-29T23:56:38.592Z,14.91
2023-09-29T23:59:05.106Z,14.92
